createdAt,value
2017-01-09T00:00:44.809Z,1025.18
2017-01-09T00:01:44.745Z,1025.24
2017-01-09T00:02:44.685Z,1025.32
2017-01-09T00:03:44.622Z,1025.28
2017-01-09T00:04:44.561Z,1025.3
2017-01-09T00:05:44.497Z,1025.28
2017-01-09T00:06:44.437Z,1025.33
2017-01-09T00:07:44.374Z,1025.35
2017-01-09T00:08:44.313Z,1025.37
2017-01-09T00:09:44.252Z,1025.38
2017-01-09T00:10:44.190Z,1025.39
2017-01-09T00:11:44.127Z,1025.36
2017-01-09T00:12:44.065Z,1025.37
2017-01-09T00:13:44.004Z,1025.34
2017-01-09T00:14:43.939Z,1025.34
2017-01-09T00:15:43.878Z,1025.36
2017-01-09T00:16:43.818Z,1025.35
2017-01-09T00:17:43.756Z,1025.33
2017-01-09T00:18:43.693Z,1025.3
2017-01-09T00:19:43.631Z,1025.27
2017-01-09T00:20:43.569Z,1025.23
2017-01-09T00:21:43.507Z,1025.25
2017-01-09T00:22:43.444Z,1025.19
2017-01-09T00:23:43.383Z,1025.2
2017-01-09T00:24:43.322Z,1025.18
2017-01-09T00:25:43.258Z,1025.18
2017-01-09T00:26:43.197Z,1025.15
2017-01-09T00:27:43.136Z,1025.12
2017-01-09T00:28:43.073Z,1025.15
2017-01-09T00:29:43.021Z,1025.17
2017-01-09T00:30:42.949Z,1025.15
2017-01-09T00:31:42.887Z,1025.13
2017-01-09T00:32:42.824Z,1025.09
2017-01-09T00:33:42.761Z,1025.13
2017-01-09T00:34:42.701Z,1025.09
2017-01-09T00:35:42.637Z,1025.1
2017-01-09T00:36:42.577Z,1025.08
2017-01-09T00:37:42.514Z,1025.07
2017-01-09T00:38:42.451Z,1025.06
2017-01-09T00:39:42.389Z,1025.08
2017-01-09T00:40:42.328Z,1025.07
2017-01-09T00:41:42.266Z,1025
2017-01-09T00:42:42.204Z,1025.02
2017-01-09T00:43:42.143Z,1025.06
2017-01-09T00:44:42.081Z,1025.02
2017-01-09T00:45:42.017Z,1025.04
2017-01-09T00:46:41.955Z,1025.07
2017-01-09T00:47:41.894Z,1025.03
2017-01-09T00:48:41.831Z,1025.05
2017-01-09T00:49:41.769Z,1025.05
2017-01-09T00:50:41.707Z,1024.99
2017-01-09T00:51:41.646Z,1025.02
2017-01-09T00:52:41.583Z,1024.99
2017-01-09T00:53:41.522Z,1025.04
2017-01-09T00:54:41.458Z,1025.08
2017-01-09T00:55:41.397Z,1025.03
2017-01-09T00:56:41.335Z,1025.06
2017-01-09T00:57:41.273Z,1025.04
2017-01-09T00:58:41.211Z,1025.07
2017-01-09T00:59:41.149Z,1025.1
2017-01-09T01:02:11.094Z,1025.08
2017-01-09T01:03:11.030Z,1025.04
2017-01-09T01:04:10.969Z,1025.03
2017-01-09T01:05:10.907Z,1025.05
2017-01-09T01:06:10.844Z,1025.07
2017-01-09T01:07:10.783Z,1025.03
2017-01-09T01:08:10.721Z,1024.99
2017-01-09T01:09:10.657Z,1025.02
2017-01-09T01:10:10.597Z,1025.02
2017-01-09T01:11:10.533Z,1024.98
2017-01-09T01:12:10.472Z,1024.98
2017-01-09T01:13:10.409Z,1024.98
2017-01-09T01:14:10.347Z,1024.98
2017-01-09T01:15:10.306Z,1024.97
2017-01-09T01:16:10.223Z,1025
2017-01-09T01:17:10.160Z,1025.02
2017-01-09T01:18:10.099Z,1025.01
2017-01-09T01:19:10.035Z,1025.06
2017-01-09T01:20:09.974Z,1025.04
2017-01-09T01:21:09.912Z,1025.05
2017-01-09T01:22:09.848Z,1025.04
2017-01-09T01:23:09.789Z,1025.08
2017-01-09T01:24:09.725Z,1025.03
2017-01-09T01:25:09.664Z,1025.05
2017-01-09T01:26:09.601Z,1025.04
2017-01-09T01:27:09.538Z,1025.1
2017-01-09T01:28:09.476Z,1025.06
2017-01-09T01:29:09.414Z,1025.08
2017-01-09T01:30:09.351Z,1025.09
2017-01-09T01:31:09.289Z,1025.1
2017-01-09T01:32:09.228Z,1025.12
2017-01-09T01:33:09.166Z,1025.14
2017-01-09T01:34:09.102Z,1025.1
2017-01-09T01:35:09.041Z,1025.09
2017-01-09T01:36:08.981Z,1025.08
2017-01-09T01:37:08.916Z,1025.07
2017-01-09T01:38:08.854Z,1025.03
2017-01-09T01:39:08.794Z,1025.03
2017-01-09T01:40:08.731Z,1025.03
2017-01-09T01:41:08.669Z,1025
2017-01-09T01:42:08.607Z,1024.99
2017-01-09T01:43:08.544Z,1024.97
2017-01-09T01:44:08.481Z,1024.97
2017-01-09T01:45:08.421Z,1024.97
2017-01-09T01:46:08.359Z,1024.97
2017-01-09T01:47:08.297Z,1024.93
2017-01-09T01:48:08.233Z,1024.93
2017-01-09T01:49:08.173Z,1024.91
2017-01-09T01:50:08.109Z,1024.88
2017-01-09T01:51:08.048Z,1024.84
2017-01-09T01:52:07.984Z,1024.84
2017-01-09T01:53:07.923Z,1024.85
2017-01-09T01:54:07.860Z,1024.81
2017-01-09T01:55:07.798Z,1024.85
2017-01-09T01:56:07.736Z,1024.81
2017-01-09T01:57:07.674Z,1024.8
2017-01-09T01:58:07.613Z,1024.8
2017-01-09T01:59:07.551Z,1024.84
2017-01-09T02:00:07.489Z,1024.81
2017-01-09T02:01:07.426Z,1024.81
2017-01-09T02:02:07.365Z,1024.84
2017-01-09T02:03:07.302Z,1024.79
2017-01-09T02:04:07.242Z,1024.76
2017-01-09T02:05:07.178Z,1024.74
2017-01-09T02:06:07.115Z,1024.72
2017-01-09T02:07:07.055Z,1024.71
2017-01-09T02:08:06.995Z,1024.66
2017-01-09T02:09:06.930Z,1024.58
2017-01-09T02:10:06.867Z,1024.58
2017-01-09T02:11:06.804Z,1024.51
2017-01-09T02:12:06.743Z,1024.49
2017-01-09T02:13:06.690Z,1024.51
2017-01-09T02:14:06.620Z,1024.49
2017-01-09T02:15:06.557Z,1024.5
2017-01-09T02:16:06.496Z,1024.48
2017-01-09T02:17:06.432Z,1024.49
2017-01-09T02:18:06.371Z,1024.48
2017-01-09T02:19:06.310Z,1024.5
2017-01-09T02:20:06.248Z,1024.5
2017-01-09T02:21:06.185Z,1024.49
2017-01-09T02:22:06.122Z,1024.55
2017-01-09T02:23:06.062Z,1024.53
2017-01-09T02:24:05.999Z,1024.55
2017-01-09T02:25:05.937Z,1024.53
2017-01-09T02:26:05.874Z,1024.56
2017-01-09T02:27:05.814Z,1024.57
2017-01-09T02:28:05.749Z,1024.56
2017-01-09T02:29:05.688Z,1024.6
2017-01-09T02:30:05.626Z,1024.59
2017-01-09T02:31:05.565Z,1024.54
2017-01-09T02:32:05.503Z,1024.53
2017-01-09T02:33:05.440Z,1024.56
2017-01-09T02:34:05.381Z,1024.52
2017-01-09T02:35:05.318Z,1024.52
2017-01-09T02:36:05.255Z,1024.51
2017-01-09T02:37:05.193Z,1024.46
2017-01-09T02:38:05.141Z,1024.45
2017-01-09T02:39:05.069Z,1024.47
2017-01-09T02:40:05.013Z,1024.51
2017-01-09T02:41:04.946Z,1024.54
2017-01-09T02:42:04.885Z,1024.49
2017-01-09T02:43:04.821Z,1024.5
2017-01-09T02:44:04.759Z,1024.5
2017-01-09T02:45:04.697Z,1024.52
2017-01-09T02:46:04.636Z,1024.49
2017-01-09T02:47:04.574Z,1024.49
2017-01-09T02:48:04.511Z,1024.51
2017-01-09T02:49:04.450Z,1024.53
2017-01-09T02:50:04.387Z,1024.51
2017-01-09T02:51:04.325Z,1024.55
2017-01-09T02:52:04.263Z,1024.52
2017-01-09T02:53:04.207Z,1024.51
2017-01-09T02:54:04.138Z,1024.53
2017-01-09T02:55:04.077Z,1024.55
2017-01-09T02:56:04.015Z,1024.52
2017-01-09T02:57:03.951Z,1024.53
2017-01-09T02:58:03.889Z,1024.55
2017-01-09T02:59:03.828Z,1024.53
2017-01-09T03:00:03.766Z,1024.54
2017-01-09T03:01:03.703Z,1024.48
2017-01-09T03:02:03.641Z,1024.52
2017-01-09T03:03:03.580Z,1024.59
2017-01-09T03:04:03.519Z,1024.58
2017-01-09T03:05:03.456Z,1024.59
2017-01-09T03:06:03.395Z,1024.59
2017-01-09T03:07:03.332Z,1024.56
2017-01-09T03:08:03.269Z,1024.53
2017-01-09T03:09:03.208Z,1024.54
2017-01-09T03:10:03.145Z,1024.55
2017-01-09T03:11:03.085Z,1024.57
2017-01-09T03:12:03.022Z,1024.57
2017-01-09T03:13:02.959Z,1024.54
2017-01-09T03:14:02.898Z,1024.56
2017-01-09T03:15:02.835Z,1024.56
2017-01-09T03:16:02.774Z,1024.54
2017-01-09T03:17:02.711Z,1024.55
2017-01-09T03:18:02.651Z,1024.53
2017-01-09T03:19:02.587Z,1024.52
2017-01-09T03:20:02.525Z,1024.59
2017-01-09T03:21:02.464Z,1024.52
2017-01-09T03:22:02.403Z,1024.53
2017-01-09T03:23:02.339Z,1024.52
2017-01-09T03:24:02.277Z,1024.49
2017-01-09T03:25:02.216Z,1024.44
2017-01-09T03:26:02.154Z,1024.45
2017-01-09T03:27:02.091Z,1024.39
2017-01-09T03:28:02.029Z,1024.4
2017-01-09T03:29:01.968Z,1024.38
2017-01-09T03:30:01.906Z,1024.36
2017-01-09T03:31:01.844Z,1024.32
2017-01-09T03:32:01.782Z,1024.28
2017-01-09T03:33:01.720Z,1024.26
2017-01-09T03:34:01.658Z,1024.21
2017-01-09T03:35:01.596Z,1024.19
2017-01-09T03:36:01.534Z,1024.19
2017-01-09T03:37:01.474Z,1024.2
2017-01-09T03:38:01.411Z,1024.2
2017-01-09T03:39:01.348Z,1024.2
2017-01-09T03:40:01.288Z,1024.21
2017-01-09T03:41:01.225Z,1024.16
2017-01-09T03:42:01.164Z,1024.13
2017-01-09T03:43:01.109Z,1024.14
2017-01-09T03:44:01.039Z,1024.09
2017-01-09T03:45:00.976Z,1024.04
2017-01-09T03:46:00.915Z,1024.04
2017-01-09T03:47:00.854Z,1024.06
2017-01-09T03:48:00.792Z,1024.01
2017-01-09T03:49:00.729Z,1023.95
2017-01-09T03:50:00.667Z,1023.94
2017-01-09T03:51:00.617Z,1023.94
2017-01-09T03:52:00.543Z,1023.9
2017-01-09T03:53:00.482Z,1023.91
2017-01-09T03:54:00.421Z,1023.77
2017-01-09T03:55:00.359Z,1023.77
2017-01-09T03:56:00.295Z,1023.7
2017-01-09T03:57:00.244Z,1023.71
2017-01-09T03:58:00.174Z,1023.69
2017-01-09T03:59:00.111Z,1023.7
2017-01-09T04:00:00.049Z,1023.71
2017-01-09T04:00:59.988Z,1023.73
2017-01-09T04:01:59.926Z,1023.69
2017-01-09T04:02:59.863Z,1023.72
2017-01-09T04:03:59.811Z,1023.69
2017-01-09T04:04:59.745Z,1023.71
2017-01-09T04:05:59.689Z,1023.63
2017-01-09T04:06:59.615Z,1023.67
2017-01-09T04:07:59.553Z,1023.63
2017-01-09T04:08:59.494Z,1023.58
2017-01-09T04:09:59.430Z,1023.63
2017-01-09T04:10:59.370Z,1023.57
2017-01-09T04:11:59.308Z,1023.58
2017-01-09T04:12:59.246Z,1023.52
2017-01-09T04:13:59.184Z,1023.54
2017-01-09T04:14:59.124Z,1023.55
2017-01-09T04:15:59.061Z,1023.9
2017-01-09T04:16:58.999Z,1024.06
2017-01-09T04:17:58.936Z,1024.04
2017-01-09T04:18:58.876Z,1023.75
2017-01-09T04:19:58.815Z,1023.74
2017-01-09T04:20:58.750Z,1023.74
2017-01-09T04:21:58.690Z,1023.7
2017-01-09T04:22:58.628Z,1023.67
2017-01-09T04:23:58.565Z,1023.67
2017-01-09T04:24:58.503Z,1023.64
2017-01-09T04:25:58.442Z,1023.64
2017-01-09T04:26:58.381Z,1023.67
2017-01-09T04:27:58.318Z,1023.62
2017-01-09T04:28:58.257Z,1023.68
2017-01-09T04:29:58.195Z,1023.65
2017-01-09T04:30:58.132Z,1023.6
2017-01-09T04:31:58.070Z,1023.55
2017-01-09T04:32:58.008Z,1023.51
2017-01-09T04:33:57.948Z,1023.54
2017-01-09T04:34:57.886Z,1023.53
2017-01-09T04:35:57.823Z,1023.48
2017-01-09T04:36:57.762Z,1023.54
2017-01-09T04:37:57.702Z,1023.55
2017-01-09T04:38:57.639Z,1023.52
2017-01-09T04:39:57.576Z,1023.54
2017-01-09T04:40:57.515Z,1023.52
2017-01-09T04:41:57.455Z,1023.48
2017-01-09T04:42:57.391Z,1023.44
2017-01-09T04:43:57.329Z,1023.46
2017-01-09T04:44:57.267Z,1023.45
2017-01-09T04:45:57.206Z,1023.43
2017-01-09T04:46:57.153Z,1023.44
2017-01-09T04:47:57.082Z,1023.4
2017-01-09T04:48:57.023Z,1023.41
2017-01-09T04:49:56.957Z,1023.35
2017-01-09T04:50:56.897Z,1023.35
2017-01-09T04:51:56.834Z,1023.38
2017-01-09T04:52:56.773Z,1023.35
2017-01-09T04:53:56.710Z,1023.4
2017-01-09T04:54:56.648Z,1023.37
2017-01-09T04:55:56.588Z,1023.34
2017-01-09T04:56:56.525Z,1023.37
2017-01-09T04:57:56.462Z,1023.35
2017-01-09T04:58:56.401Z,1023.37
2017-01-09T04:59:56.340Z,1023.39
2017-01-09T05:00:56.278Z,1023.37
2017-01-09T05:01:56.216Z,1023.38
2017-01-09T05:02:56.153Z,1023.4
2017-01-09T05:03:56.093Z,1023.48
2017-01-09T05:04:56.029Z,1023.47
2017-01-09T05:05:55.969Z,1023.44
2017-01-09T05:06:55.916Z,1023.46
2017-01-09T05:07:55.844Z,1023.46
2017-01-09T05:08:55.782Z,1023.42
2017-01-09T05:09:55.719Z,1023.41
2017-01-09T05:10:55.660Z,1023.41
2017-01-09T05:11:55.596Z,1023.39
2017-01-09T05:12:55.534Z,1023.41
2017-01-09T05:13:55.472Z,1023.38
2017-01-09T05:14:55.410Z,1023.43
2017-01-09T05:15:55.349Z,1023.39
2017-01-09T05:16:55.285Z,1023.41
2017-01-09T05:17:55.224Z,1023.39
2017-01-09T05:18:55.163Z,1023.4
2017-01-09T05:19:55.100Z,1023.34
2017-01-09T05:20:55.039Z,1023.36
2017-01-09T05:21:54.977Z,1023.33
2017-01-09T05:22:54.916Z,1023.33
2017-01-09T05:23:54.852Z,1023.34
2017-01-09T05:24:54.791Z,1023.22
2017-01-09T05:25:54.730Z,1023.29
2017-01-09T05:26:54.674Z,1023.21
2017-01-09T05:27:54.604Z,1023.21
2017-01-09T05:28:54.542Z,1023.16
2017-01-09T05:29:54.479Z,1023.09
2017-01-09T05:30:54.417Z,1023.08
2017-01-09T05:31:54.355Z,1023.08
2017-01-09T05:32:54.294Z,1023.11
2017-01-09T05:33:54.231Z,1023.1
2017-01-09T05:34:54.169Z,1023.08
2017-01-09T05:35:54.109Z,1023.04
2017-01-09T05:36:54.047Z,1023.04
2017-01-09T05:37:53.984Z,1023.06
2017-01-09T05:38:53.920Z,1023.04
2017-01-09T05:39:53.860Z,1023.04
2017-01-09T05:40:53.796Z,1023.01
2017-01-09T05:41:53.735Z,1023.03
2017-01-09T05:42:53.672Z,1023.06
2017-01-09T05:43:53.611Z,1023.04
2017-01-09T05:44:53.550Z,1023.05
2017-01-09T05:45:53.486Z,1022.98
2017-01-09T05:46:53.429Z,1022.89
2017-01-09T05:47:53.363Z,1022.86
2017-01-09T05:48:53.300Z,1022.84
2017-01-09T05:49:53.239Z,1022.84
2017-01-09T05:50:53.177Z,1022.82
2017-01-09T05:51:53.115Z,1022.81
2017-01-09T05:52:53.052Z,1022.84
2017-01-09T05:53:52.989Z,1022.84
2017-01-09T05:54:52.928Z,1022.85
2017-01-09T05:55:52.866Z,1022.86
2017-01-09T05:56:52.804Z,1022.82
2017-01-09T05:57:52.742Z,1022.83
2017-01-09T05:58:52.679Z,1022.82
2017-01-09T05:59:52.616Z,1022.81
2017-01-09T06:00:52.555Z,1022.79
2017-01-09T06:01:52.505Z,1022.8
2017-01-09T06:02:52.431Z,1022.8
2017-01-09T06:03:52.371Z,1022.8
2017-01-09T06:04:52.307Z,1022.78
2017-01-09T06:05:52.244Z,1022.78
2017-01-09T06:06:52.181Z,1022.78
2017-01-09T06:07:52.119Z,1022.8
2017-01-09T06:08:52.058Z,1022.78
2017-01-09T06:09:51.995Z,1022.76
2017-01-09T06:10:51.932Z,1022.75
2017-01-09T06:11:51.871Z,1022.74
2017-01-09T06:12:51.809Z,1022.74
2017-01-09T06:13:51.747Z,1022.74
2017-01-09T06:14:51.684Z,1022.72
2017-01-09T06:15:51.622Z,1022.72
2017-01-09T06:16:51.560Z,1022.68
2017-01-09T06:17:51.496Z,1022.67
2017-01-09T06:18:51.435Z,1022.6
2017-01-09T06:19:51.373Z,1022.6
2017-01-09T06:20:51.312Z,1022.61
2017-01-09T06:21:51.248Z,1022.64
2017-01-09T06:22:51.186Z,1022.65
2017-01-09T06:23:51.126Z,1022.6
2017-01-09T06:24:51.062Z,1022.57
2017-01-09T06:25:51.001Z,1022.56
2017-01-09T06:26:50.939Z,1022.56
2017-01-09T06:27:50.877Z,1022.58
2017-01-09T06:28:50.813Z,1022.58
2017-01-09T06:29:50.751Z,1022.6
2017-01-09T06:30:50.689Z,1022.62
2017-01-09T06:31:50.626Z,1022.61
2017-01-09T06:32:50.564Z,1022.56
2017-01-09T06:33:50.501Z,1022.56
2017-01-09T06:34:50.440Z,1022.59
2017-01-09T06:35:50.378Z,1022.61
2017-01-09T06:36:50.315Z,1022.59
2017-01-09T06:37:50.254Z,1022.61
2017-01-09T06:38:50.191Z,1022.63
2017-01-09T06:39:50.131Z,1022.67
2017-01-09T06:40:50.065Z,1022.68
2017-01-09T06:41:50.005Z,1022.73
2017-01-09T06:42:49.943Z,1022.73
2017-01-09T06:43:49.889Z,1022.78
2017-01-09T06:44:49.817Z,1022.78
2017-01-09T06:45:49.754Z,1022.76
2017-01-09T06:46:49.694Z,1022.77
2017-01-09T06:47:49.633Z,1022.74
2017-01-09T06:48:49.568Z,1022.77
2017-01-09T06:49:49.506Z,1022.73
2017-01-09T06:50:49.442Z,1022.77
2017-01-09T06:51:49.380Z,1022.73
2017-01-09T06:52:49.320Z,1022.75
2017-01-09T06:53:49.258Z,1022.7
2017-01-09T06:54:49.195Z,1022.73
2017-01-09T06:55:49.131Z,1022.74
2017-01-09T06:56:49.069Z,1022.75
2017-01-09T06:57:49.007Z,1022.75
2017-01-09T06:58:48.944Z,1022.7
2017-01-09T06:59:48.884Z,1022.7
2017-01-09T07:00:48.820Z,1022.66
2017-01-09T07:01:48.759Z,1022.59
2017-01-09T07:02:48.695Z,1022.55
2017-01-09T07:03:48.634Z,1022.56
2017-01-09T07:04:48.573Z,1022.59
2017-01-09T07:05:48.508Z,1022.6
2017-01-09T07:06:48.448Z,1022.58
2017-01-09T07:07:48.385Z,1022.58
2017-01-09T07:08:48.324Z,1022.54
2017-01-09T07:09:48.260Z,1022.58
2017-01-09T07:10:48.198Z,1022.55
2017-01-09T07:11:48.135Z,1022.52
2017-01-09T07:12:48.072Z,1022.52
2017-01-09T07:13:48.010Z,1022.5
2017-01-09T07:14:47.949Z,1022.54
2017-01-09T07:15:47.886Z,1022.54
2017-01-09T07:16:47.828Z,1022.56
2017-01-09T07:17:47.763Z,1022.57
2017-01-09T07:18:47.700Z,1022.54
2017-01-09T07:19:47.638Z,1022.53
2017-01-09T07:20:47.576Z,1022.56
2017-01-09T07:21:47.514Z,1022.53
2017-01-09T07:22:47.467Z,1022.52
2017-01-09T07:23:47.389Z,1022.55
2017-01-09T07:24:47.329Z,1022.53
2017-01-09T07:25:47.267Z,1022.53
2017-01-09T07:26:47.205Z,1022.53
2017-01-09T07:27:47.142Z,1022.51
2017-01-09T07:28:47.079Z,1022.52
2017-01-09T07:29:47.018Z,1022.55
2017-01-09T07:30:46.955Z,1022.5
2017-01-09T07:31:46.894Z,1022.53
2017-01-09T07:32:46.832Z,1022.53
2017-01-09T07:33:46.771Z,1022.51
2017-01-09T07:34:46.709Z,1022.54
2017-01-09T07:35:46.646Z,1022.55
2017-01-09T07:36:46.592Z,1022.53
2017-01-09T07:37:46.524Z,1022.56
2017-01-09T07:38:46.462Z,1022.54
2017-01-09T07:39:46.399Z,1022.57
2017-01-09T07:40:46.338Z,1022.59
2017-01-09T07:41:46.274Z,1022.58
2017-01-09T07:42:46.214Z,1022.58
2017-01-09T07:43:46.152Z,1022.58
2017-01-09T07:44:46.091Z,1022.61
2017-01-09T07:45:46.028Z,1022.6
2017-01-09T07:46:45.967Z,1022.6
2017-01-09T07:47:45.906Z,1022.62
2017-01-09T07:48:45.842Z,1022.61
2017-01-09T07:49:45.779Z,1022.64
2017-01-09T07:50:45.719Z,1022.64
2017-01-09T07:51:45.658Z,1022.65
2017-01-09T07:52:45.618Z,1022.64
2017-01-09T07:53:45.542Z,1022.64
2017-01-09T07:54:45.472Z,1022.62
2017-01-09T07:55:45.409Z,1022.69
2017-01-09T07:56:45.352Z,1022.65
2017-01-09T07:57:45.285Z,1022.66
2017-01-09T07:58:45.223Z,1022.67
2017-01-09T07:59:45.164Z,1022.73
2017-01-09T08:00:45.341Z,1022.71
2017-01-09T08:01:45.037Z,1022.7
2017-01-09T08:02:44.977Z,1022.7
2017-01-09T08:03:44.915Z,1022.72
2017-01-09T08:04:44.852Z,1022.73
2017-01-09T08:05:44.792Z,1022.71
2017-01-09T08:06:44.730Z,1022.73
2017-01-09T08:07:44.666Z,1022.74
2017-01-09T08:08:44.607Z,1022.72
2017-01-09T08:09:44.543Z,1022.66
2017-01-09T08:10:44.482Z,1022.72
2017-01-09T08:11:44.419Z,1022.71
2017-01-09T08:12:44.360Z,1022.7
2017-01-09T08:13:44.296Z,1022.66
2017-01-09T08:14:44.234Z,1022.64
2017-01-09T08:15:44.171Z,1022.66
2017-01-09T08:16:44.109Z,1022.61
2017-01-09T08:17:44.048Z,1022.66
2017-01-09T08:18:43.989Z,1022.63
2017-01-09T08:19:43.924Z,1022.62
2017-01-09T08:20:43.864Z,1022.63
2017-01-09T08:21:43.802Z,1022.62
2017-01-09T08:22:43.739Z,1022.61
2017-01-09T08:23:43.677Z,1022.58
2017-01-09T08:24:43.615Z,1022.54
2017-01-09T08:25:43.552Z,1022.55
2017-01-09T08:26:43.491Z,1022.55
2017-01-09T08:27:43.430Z,1022.51
2017-01-09T08:28:43.366Z,1022.49
2017-01-09T08:29:43.305Z,1022.49
2017-01-09T08:30:43.244Z,1022.47
2017-01-09T08:31:43.182Z,1022.42
2017-01-09T08:32:43.120Z,1022.47
2017-01-09T08:33:43.058Z,1022.45
2017-01-09T08:34:42.996Z,1022.48
2017-01-09T08:35:42.934Z,1022.44
2017-01-09T08:36:42.879Z,1022.49
2017-01-09T08:37:42.809Z,1022.44
2017-01-09T08:38:42.748Z,1022.47
2017-01-09T08:39:42.685Z,1022.39
2017-01-09T08:40:42.624Z,1022.39
2017-01-09T08:41:42.560Z,1022.42
2017-01-09T08:42:42.502Z,1022.39
2017-01-09T08:43:42.439Z,1022.38
2017-01-09T08:44:42.380Z,1022.37
2017-01-09T08:45:42.314Z,1022.4
2017-01-09T08:47:42.190Z,1022.43
2017-01-09T08:48:42.128Z,1022.47
2017-01-09T08:49:42.066Z,1022.45
2017-01-09T08:50:42.005Z,1022.42
2017-01-09T08:51:41.941Z,1022.39
2017-01-09T08:52:41.887Z,1022.35
2017-01-09T08:53:41.819Z,1022.36
2017-01-09T08:54:41.760Z,1022.4
2017-01-09T08:55:41.695Z,1022.36
2017-01-09T08:56:41.632Z,1022.39
2017-01-09T08:57:41.572Z,1022.39
2017-01-09T08:58:41.509Z,1022.38
2017-01-09T08:59:41.447Z,1022.42
2017-01-09T09:00:41.385Z,1022.42
2017-01-09T09:01:41.324Z,1022.39
2017-01-09T09:02:41.261Z,1022.41
2017-01-09T09:03:41.199Z,1022.39
2017-01-09T09:04:41.138Z,1022.39
2017-01-09T09:05:41.075Z,1022.41
2017-01-09T09:06:41.012Z,1022.43
2017-01-09T09:07:40.950Z,1022.44
2017-01-09T09:08:40.890Z,1022.42
2017-01-09T09:09:40.828Z,1022.42
2017-01-09T09:10:40.766Z,1022.39
2017-01-09T09:11:40.714Z,1022.44
2017-01-09T09:12:40.645Z,1022.43
2017-01-09T09:13:40.579Z,1022.43
2017-01-09T09:14:40.518Z,1022.4
2017-01-09T09:15:40.455Z,1022.4
2017-01-09T09:16:40.393Z,1022.39
2017-01-09T09:17:40.331Z,1022.39
2017-01-09T09:18:40.269Z,1022.38
2017-01-09T09:19:40.207Z,1022.36
2017-01-09T09:20:40.145Z,1022.36
2017-01-09T09:21:40.082Z,1022.36
2017-01-09T09:22:40.021Z,1022.36
2017-01-09T09:23:39.960Z,1022.39
2017-01-09T09:24:39.898Z,1022.38
2017-01-09T09:25:39.835Z,1022.36
2017-01-09T09:26:39.773Z,1022.36
2017-01-09T09:27:39.710Z,1022.33
2017-01-09T09:28:39.648Z,1022.34
2017-01-09T09:29:39.591Z,1022.33
2017-01-09T09:30:39.524Z,1022.32
2017-01-09T09:31:39.462Z,1022.31
2017-01-09T09:32:39.403Z,1022.3
2017-01-09T09:33:39.354Z,1022.36
2017-01-09T09:34:39.277Z,1022.38
2017-01-09T09:35:39.224Z,1022.42
2017-01-09T09:36:39.176Z,1022.42
2017-01-09T09:37:39.101Z,1022.4
2017-01-09T09:38:39.027Z,1022.39
2017-01-09T09:39:38.965Z,1022.36
2017-01-09T09:40:38.913Z,1022.36
2017-01-09T09:41:38.841Z,1022.34
2017-01-09T09:42:38.778Z,1022.31
2017-01-09T09:43:38.720Z,1022.33
2017-01-09T09:44:38.656Z,1022.31
2017-01-09T09:45:38.594Z,1022.33
2017-01-09T09:46:38.529Z,1022.25
2017-01-09T09:47:38.469Z,1022.26
2017-01-09T09:48:38.407Z,1022.26
2017-01-09T09:49:38.344Z,1022.23
2017-01-09T09:50:38.281Z,1022.26
2017-01-09T09:51:38.220Z,1022.23
2017-01-09T09:52:38.159Z,1022.2
2017-01-09T09:53:38.097Z,1022.22
2017-01-09T09:54:38.034Z,1022.19
2017-01-09T09:55:37.972Z,1022.19
2017-01-09T09:56:37.911Z,1022.15
2017-01-09T09:57:37.850Z,1022.12
2017-01-09T09:58:37.786Z,1022.11
2017-01-09T09:59:37.724Z,1022.08
2017-01-09T10:00:37.660Z,1022.07
2017-01-09T10:01:37.598Z,1022.11
2017-01-09T10:02:37.536Z,1022.12
2017-01-09T10:03:37.480Z,1022.12
2017-01-09T10:04:37.411Z,1022.16
2017-01-09T10:05:37.350Z,1022.12
2017-01-09T10:06:37.287Z,1022.12
2017-01-09T10:07:37.226Z,1022.1
2017-01-09T10:08:37.172Z,1022.08
2017-01-09T10:09:37.102Z,1022.09
2017-01-09T10:10:37.039Z,1022.09
2017-01-09T10:11:36.977Z,1022.08
2017-01-09T10:12:36.916Z,1022.08
2017-01-09T10:13:36.854Z,1022.08
2017-01-09T10:14:36.790Z,1022.09
2017-01-09T10:15:36.731Z,1022.05
2017-01-09T10:16:36.668Z,1022.05
2017-01-09T10:17:36.615Z,1022.06
2017-01-09T10:18:36.543Z,1022.02
2017-01-09T10:19:36.479Z,1021.99
2017-01-09T10:20:36.418Z,1021.99
2017-01-09T10:21:36.355Z,1021.94
2017-01-09T10:22:36.292Z,1021.91
2017-01-09T10:23:36.231Z,1021.89
2017-01-09T10:24:36.170Z,1021.86
2017-01-09T10:25:36.109Z,1021.85
2017-01-09T10:26:36.124Z,1021.9
2017-01-09T10:27:35.982Z,1021.88
2017-01-09T10:28:35.922Z,1021.87
2017-01-09T10:29:35.858Z,1021.87
2017-01-09T10:30:35.799Z,1021.89
2017-01-09T10:31:35.736Z,1021.92
2017-01-09T10:32:35.674Z,1021.91
2017-01-09T10:33:35.610Z,1021.89
2017-01-09T10:34:35.550Z,1021.88
2017-01-09T10:35:35.488Z,1021.88
2017-01-09T10:36:35.426Z,1021.87
2017-01-09T10:37:35.362Z,1021.85
2017-01-09T10:38:35.300Z,1021.84
2017-01-09T10:39:35.238Z,1021.78
2017-01-09T10:40:35.177Z,1021.79
2017-01-09T10:41:35.115Z,1021.76
2017-01-09T10:42:35.053Z,1021.73
2017-01-09T10:43:34.991Z,1021.68
2017-01-09T10:44:34.928Z,1021.66
2017-01-09T10:45:34.867Z,1021.65
2017-01-09T10:46:34.810Z,1021.64
2017-01-09T10:47:34.743Z,1021.57
2017-01-09T10:48:34.679Z,1021.55
2017-01-09T10:49:34.618Z,1021.57
2017-01-09T10:50:34.557Z,1021.58
2017-01-09T10:51:34.494Z,1021.58
2017-01-09T10:52:34.433Z,1021.59
2017-01-09T10:53:34.369Z,1021.54
2017-01-09T10:54:34.308Z,1021.53
2017-01-09T10:55:34.246Z,1021.5
2017-01-09T10:56:34.185Z,1021.51
2017-01-09T10:57:34.122Z,1021.52
2017-01-09T10:58:34.061Z,1021.51
2017-01-09T10:59:33.998Z,1021.51
2017-01-09T11:00:33.936Z,1021.46
2017-01-09T11:01:33.875Z,1021.45
2017-01-09T11:02:33.811Z,1021.39
2017-01-09T11:03:33.750Z,1021.41
2017-01-09T11:04:33.688Z,1021.35
2017-01-09T11:05:33.627Z,1021.35
2017-01-09T11:06:33.568Z,1021.35
2017-01-09T11:07:33.501Z,1021.36
2017-01-09T11:08:33.440Z,1021.35
2017-01-09T11:09:33.378Z,1021.33
2017-01-09T11:10:33.316Z,1021.32
2017-01-09T11:11:33.257Z,1021.31
2017-01-09T11:12:33.193Z,1021.3
2017-01-09T11:13:33.129Z,1021.3
2017-01-09T11:14:33.068Z,1021.28
2017-01-09T11:15:33.006Z,1021.22
2017-01-09T11:16:32.945Z,1021.19
2017-01-09T11:17:32.881Z,1021.21
2017-01-09T11:18:32.819Z,1021.16
2017-01-09T11:19:32.758Z,1021.16
2017-01-09T11:20:32.697Z,1021.12
2017-01-09T11:21:32.632Z,1021.09
2017-01-09T11:22:32.577Z,1021.04
2017-01-09T11:23:32.511Z,1021.05
2017-01-09T11:24:32.446Z,1021.02
2017-01-09T11:25:32.384Z,1021
2017-01-09T11:26:32.324Z,1020.97
2017-01-09T11:27:32.262Z,1020.95
2017-01-09T11:28:32.199Z,1020.94
2017-01-09T11:29:32.137Z,1020.92
2017-01-09T11:30:32.075Z,1020.86
2017-01-09T11:31:32.014Z,1020.84
2017-01-09T11:32:31.951Z,1020.81
2017-01-09T11:33:31.889Z,1020.83
2017-01-09T11:34:31.836Z,1020.77
2017-01-09T11:35:31.763Z,1020.74
2017-01-09T11:36:31.701Z,1020.75
2017-01-09T11:37:31.648Z,1020.77
2017-01-09T11:38:31.578Z,1020.72
2017-01-09T11:39:31.515Z,1020.75
2017-01-09T11:40:31.454Z,1020.75
2017-01-09T11:41:31.390Z,1020.75
2017-01-09T11:42:31.330Z,1020.75
2017-01-09T11:43:31.266Z,1020.69
2017-01-09T11:44:31.215Z,1020.69
2017-01-09T11:45:31.142Z,1020.64
2017-01-09T11:46:31.081Z,1020.65
2017-01-09T11:47:31.019Z,1020.64
2017-01-09T11:48:30.957Z,1020.62
2017-01-09T11:49:30.894Z,1020.63
2017-01-09T11:50:30.831Z,1020.63
2017-01-09T11:51:30.769Z,1020.6
2017-01-09T11:52:30.708Z,1020.55
2017-01-09T11:53:30.647Z,1020.53
2017-01-09T11:54:30.587Z,1020.56
2017-01-09T11:55:30.520Z,1020.53
2017-01-09T11:56:30.459Z,1020.49
2017-01-09T11:57:30.395Z,1020.47
2017-01-09T11:58:30.334Z,1020.44
2017-01-09T11:59:30.271Z,1020.46
2017-01-09T12:00:30.210Z,1020.43
2017-01-09T12:01:30.146Z,1020.41
2017-01-09T12:02:30.085Z,1020.41
2017-01-09T12:03:30.023Z,1020.4
2017-01-09T12:04:29.960Z,1020.38
2017-01-09T12:05:29.898Z,1020.42
2017-01-09T12:06:29.837Z,1020.35
2017-01-09T12:07:29.775Z,1020.34
2017-01-09T12:08:29.712Z,1020.32
2017-01-09T12:09:29.649Z,1020.26
2017-01-09T12:10:29.587Z,1020.25